PWSweather.com
Personal Weather Stations
Station Observations
EA1HLH
Laracha, LarachaES 15145

LarachaLarachaES 15145

Lat: 43.2581509, Lon: -8.5868

Elevation: 650

Station Type: PCE-FWS20

Latest ConditionsUpdated 9:10:08 PM GMT+01:01 Tuesday, May 21, 2019
Currently Today's Max Today's Min Today's Average
Temperature 57.6°F14.2°C 66.7°F19.3°C 47.3°F8.5°C 58.3°F14.6°C
Dew Point 50.0°F10.0°C 53.3°F11.8°C 41.8°F5.4°C 46.1°F7.8°C
Winds 1.2 mph WSW1.9 kmh WSW 10.4 mph -16.7 kmh - - 3.5 mph 5.6 kmh
Wind Gusts 2.3 mph3.7 kmh 15.0 mph24.1 kmh - -
Humidity 76% 83% 45% 65%
Pressure 30.03 in1016.9 mb 30.03 in1016.9 mb 29.97 in1014.9 mb -
Hour Temp Dew Point Humidity Winds Wind Gusts Pressure Precip Precip Rate Daily Precip Total
09:10 PM 57.6°F14.2°C 50.0°F10.0°C 76% 1.2 mph WSW1.9 kmh WSW 2.3 mph3.7 kmh 30.03 in1016.9 mb - 0.00 in0.0 mm 0.00 in0.0 mm
09:00 PM 58.1°F14.5°C 50.2°F10.1°C 75% Calm Calm -- 30.03 in1016.9 mb - 0.00 in0.0 mm 0.00 in0.0 mm
08:55 PM 58.5°F14.7°C 50.6°F10.3°C 75% 1.2 mph W1.9 kmh W 2.3 mph3.7 kmh 30.03 in1016.9 mb - 0.00 in0.0 mm 0.00 in0.0 mm
08:50 PM 58.9°F14.9°C 50.6°F10.3°C 74% 1.2 mph W1.9 kmh W 3.5 mph5.6 kmh 30.03 in1016.9 mb - 0.00 in0.0 mm 0.00 in0.0 mm
08:45 PM 59.4°F15.2°C 51.1°F10.6°C 74% 1.2 mph W1.9 kmh W 2.3 mph3.7 kmh 30.03 in1016.9 mb - 0.00 in0.0 mm 0.00 in0.0 mm
08:40 PM 59.6°F15.3°C 50.9°F10.5°C 73% 2.3 mph W3.7 kmh W 3.5 mph5.6 kmh 30.03 in1016.9 mb - 0.00 in0.0 mm 0.00 in0.0 mm
08:35 PM 60.1°F15.6°C 51.4°F10.8°C 73% 2.3 mph NW3.7 kmh NW 3.5 mph5.6 kmh 30.03 in1016.9 mb - 0.00 in0.0 mm 0.00 in0.0 mm
08:30 PM 60.4°F15.8°C 51.7°F10.9°C 73% 1.2 mph WSW1.9 kmh WSW 2.3 mph3.7 kmh 30.03 in1016.9 mb - 0.00 in0.0 mm 0.00 in0.0 mm
08:25 PM 60.6°F15.9°C 51.9°F11.1°C 73% 2.3 mph NW3.7 kmh NW 3.5 mph5.6 kmh 30.03 in1016.9 mb - 0.00 in0.0 mm 0.00 in0.0 mm
08:20 PM 61.0°F16.1°C 51.9°F11.1°C 72% 3.5 mph W5.6 kmh W 4.6 mph7.4 kmh 30.03 in1016.9 mb - 0.00 in0.0 mm 0.00 in0.0 mm
08:15 PM 61.4°F16.3°C 52.3°F11.3°C 72% 3.5 mph W5.6 kmh W 3.5 mph5.6 kmh 30.03 in1016.9 mb - 0.00 in0.0 mm 0.00 in0.0 mm
08:10 PM 61.9°F16.6°C 52.8°F11.6°C 72% 3.5 mph W5.6 kmh W 4.6 mph7.4 kmh 30.03 in1016.9 mb - 0.00 in0.0 mm 0.00 in0.0 mm
08:00 PM 61.9°F16.6°C 52.8°F11.6°C 72% 2.3 mph W3.7 kmh W 3.5 mph5.6 kmh 30.03 in1016.9 mb - 0.00 in0.0 mm 0.00 in0.0 mm
07:55 PM 61.9°F16.6°C 52.4°F11.3°C 71% 3.5 mph W5.6 kmh W 4.6 mph7.4 kmh 30.02 in1016.6 mb - 0.00 in0.0 mm 0.00 in0.0 mm
07:50 PM 62.2°F16.8°C 52.7°F11.5°C 71% 3.5 mph W5.6 kmh W 4.6 mph7.4 kmh 30.02 in1016.6 mb - 0.00 in0.0 mm 0.00 in0.0 mm
07:45 PM 62.5°F16.9°C 52.9°F11.6°C 71% 3.5 mph NW5.6 kmh NW 5.8 mph9.3 kmh 30.02 in1016.6 mb - 0.00 in0.0 mm 0.00 in0.0 mm
07:40 PM 62.7°F17.1°C 53.2°F11.8°C 71% 3.5 mph NW5.6 kmh NW 3.5 mph5.6 kmh 30.03 in1016.9 mb - 0.00 in0.0 mm 0.00 in0.0 mm
07:35 PM 62.6°F17.0°C 53.1°F11.7°C 71% 4.6 mph W7.4 kmh W 5.8 mph9.3 kmh 30.03 in1016.9 mb - 0.00 in0.0 mm 0.00 in0.0 mm
07:30 PM 62.8°F17.1°C 53.3°F11.8°C 71% 5.8 mph NW9.3 kmh NW 6.9 mph11.1 kmh 30.03 in1016.9 mb - 0.00 in0.0 mm 0.00 in0.0 mm
07:25 PM 63.1°F17.3°C 53.2°F11.8°C 70% 4.6 mph W7.4 kmh W 5.8 mph9.3 kmh 30.02 in1016.6 mb - 0.00 in0.0 mm 0.00 in0.0 mm
07:20 PM 63.0°F17.2°C 53.0°F11.7°C 70% 5.8 mph W9.3 kmh W 6.9 mph11.1 kmh 30.02 in1016.6 mb - 0.00 in0.0 mm 0.00 in0.0 mm
07:15 PM 63.0°F17.2°C 53.0°F11.7°C 70% 4.6 mph NW7.4 kmh NW 6.9 mph11.1 kmh 30.02 in1016.6 mb - 0.00 in0.0 mm 0.00 in0.0 mm
07:10 PM 63.0°F17.2°C 53.0°F11.7°C 70% 6.9 mph W11.1 kmh W 8.1 mph13.0 kmh 30.02 in1016.6 mb - 0.00 in0.0 mm 0.00 in0.0 mm
07:00 PM 63.5°F17.5°C 51.5°F10.8°C 65% 5.8 mph W9.3 kmh W 8.1 mph13.0 kmh 30.02 in1016.6 mb - 0.00 in0.0 mm 0.00 in0.0 mm
06:55 PM 63.7°F17.6°C 51.3°F10.7°C 64% 5.8 mph W9.3 kmh W 8.1 mph13.0 kmh 30.02 in1016.6 mb - 0.00 in0.0 mm 0.00 in0.0 mm
06:50 PM 64.1°F17.8°C 51.2°F10.7°C 63% 5.8 mph NW9.3 kmh NW 8.1 mph13.0 kmh 30.02 in1016.6 mb - 0.00 in0.0 mm 0.00 in0.0 mm
06:45 PM 64.6°F18.1°C 51.3°F10.7°C 62% 5.8 mph NW9.3 kmh NW 6.9 mph11.1 kmh 30.03 in1016.9 mb - 0.00 in0.0 mm 0.00 in0.0 mm
06:40 PM 65.2°F18.4°C 51.0°F10.6°C 60% 5.8 mph NW9.3 kmh NW 6.9 mph11.1 kmh 30.02 in1016.6 mb - 0.00 in0.0 mm 0.00 in0.0 mm
06:35 PM 66.7°F19.3°C 48.5°F9.2°C 52% 5.8 mph W9.3 kmh W 5.8 mph9.3 kmh 30.03 in1016.9 mb - 0.00 in0.0 mm 0.00 in0.0 mm
06:30 PM 66.4°F19.1°C 46.1°F7.8°C 48% 4.6 mph WSW7.4 kmh WSW 9.2 mph14.8 kmh 30.02 in1016.6 mb - 0.00 in0.0 mm 0.00 in0.0 mm
06:25 PM 66.4°F19.1°C 46.6°F8.1°C 49% 5.8 mph NW9.3 kmh NW 6.9 mph11.1 kmh 30.02 in1016.6 mb - 0.00 in0.0 mm 0.00 in0.0 mm
06:20 PM 66.0°F18.9°C 46.8°F8.2°C 50% 4.6 mph 7.4 kmh 8.1 mph13.0 kmh 30.02 in1016.6 mb - 0.00 in0.0 mm 0.00 in0.0 mm
06:15 PM 66.1°F18.9°C 46.9°F8.3°C 50% 6.9 mph NW11.1 kmh NW 8.1 mph13.0 kmh 30.02 in1016.6 mb - 0.00 in0.0 mm 0.00 in0.0 mm
06:10 PM 66.2°F19.0°C 46.5°F8.1°C 49% 5.8 mph NE9.3 kmh NE 8.1 mph13.0 kmh 30.02 in1016.6 mb - 0.00 in0.0 mm 0.00 in0.0 mm
06:00 PM 66.0°F18.9°C 45.8°F7.7°C 48% 5.8 mph WNW9.3 kmh WNW 9.2 mph14.8 kmh 30.02 in1016.6 mb - 0.00 in0.0 mm 0.00 in0.0 mm
05:55 PM 66.0°F18.9°C 46.8°F8.2°C 50% 8.1 mph 13.0 kmh 10.4 mph16.7 kmh 30.02 in1016.6 mb - 0.00 in0.0 mm 0.00 in0.0 mm
05:50 PM 65.5°F18.6°C 44.7°F7.1°C 47% 6.9 mph E11.1 kmh E 10.4 mph16.7 kmh 30.02 in1016.6 mb - 0.00 in0.0 mm 0.00 in0.0 mm
05:45 PM 65.8°F18.8°C 43.9°F6.6°C 45% 9.2 mph 14.8 kmh 13.8 mph22.2 kmh 30.02 in1016.6 mb - 0.00 in0.0 mm 0.00 in0.0 mm
05:40 PM 65.9°F18.8°C 43.9°F6.6°C 45% 10.4 mph NE16.7 kmh NE 13.8 mph22.2 kmh 30.02 in1016.6 mb - 0.00 in0.0 mm 0.00 in0.0 mm
05:35 PM 65.7°F18.7°C 43.7°F6.5°C 45% 6.9 mph NE11.1 kmh NE 10.4 mph16.7 kmh 30.02 in1016.6 mb - 0.00 in0.0 mm 0.00 in0.0 mm
05:30 PM 65.8°F18.8°C 43.9°F6.6°C 45% 9.2 mph N14.8 kmh N 12.7 mph20.4 kmh 30.02 in1016.6 mb - 0.00 in0.0 mm 0.00 in0.0 mm
05:25 PM 65.7°F18.7°C 43.7°F6.5°C 45% 8.1 mph N13.0 kmh N 10.4 mph16.7 kmh 30.02 in1016.6 mb - 0.00 in0.0 mm 0.00 in0.0 mm
05:20 PM 65.7°F18.7°C 43.8°F6.6°C 45% 8.1 mph E13.0 kmh E 10.4 mph16.7 kmh 30.02 in1016.6 mb - 0.00 in0.0 mm 0.00 in0.0 mm
05:15 PM 65.8°F18.8°C 46.6°F8.1°C 50% 6.9 mph NE11.1 kmh NE 8.1 mph13.0 kmh 30.03 in1016.9 mb - 0.00 in0.0 mm 0.00 in0.0 mm
05:10 PM 65.8°F18.8°C 45.6°F7.6°C 48% 8.1 mph NE13.0 kmh NE 10.4 mph16.7 kmh 30.03 in1016.9 mb - 0.00 in0.0 mm 0.00 in0.0 mm
05:00 PM 66.0°F18.9°C 46.3°F7.9°C 49% 4.6 mph NE7.4 kmh NE 6.9 mph11.1 kmh 30.03 in1016.9 mb - 0.00 in0.0 mm 0.00 in0.0 mm
04:55 PM 65.7°F18.7°C 44.9°F7.2°C 47% 6.9 mph NE11.1 kmh NE 10.4 mph16.7 kmh 30.03 in1016.9 mb - 0.00 in0.0 mm 0.00 in0.0 mm
04:50 PM 66.4°F19.1°C 45.5°F7.5°C 47% 8.1 mph NE13.0 kmh NE 11.5 mph18.5 kmh 30.03 in1016.9 mb - 0.00 in0.0 mm 0.00 in0.0 mm
04:45 PM 66.2°F19.0°C 45.9°F7.7°C 48% 6.9 mph NE11.1 kmh NE 10.4 mph16.7 kmh 30.03 in1016.9 mb - 0.00 in0.0 mm 0.00 in0.0 mm
04:40 PM 65.8°F18.8°C 45.6°F7.6°C 48% 6.9 mph N11.1 kmh N 9.2 mph14.8 kmh 30.03 in1016.9 mb - 0.00 in0.0 mm 0.00 in0.0 mm
04:35 PM 65.9°F18.8°C 46.2°F7.9°C 49% 8.1 mph NE13.0 kmh NE 10.4 mph16.7 kmh 30.03 in1016.9 mb - 0.00 in0.0 mm 0.00 in0.0 mm
04:30 PM 66.2°F19.0°C 47.0°F8.3°C 50% 8.1 mph NE13.0 kmh NE 10.4 mph16.7 kmh 30.03 in1016.9 mb - 0.00 in0.0 mm 0.00 in0.0 mm
04:25 PM 66.2°F19.0°C 47.0°F8.3°C 50% 8.1 mph NE13.0 kmh NE 10.4 mph16.7 kmh 30.03 in1016.9 mb - 0.00 in0.0 mm 0.00 in0.0 mm
04:20 PM 66.0°F18.9°C 46.8°F8.2°C 50% 3.5 mph N5.6 kmh N 9.2 mph14.8 kmh 30.03 in1016.9 mb - 0.00 in0.0 mm 0.00 in0.0 mm
04:15 PM 65.8°F18.8°C 46.7°F8.2°C 50% 4.6 mph NW7.4 kmh NW 8.1 mph13.0 kmh 30.03 in1016.9 mb - 0.00 in0.0 mm 0.00 in0.0 mm
04:10 PM 65.8°F18.8°C 46.7°F8.2°C 50% 6.9 mph N11.1 kmh N 8.1 mph13.0 kmh 30.03 in1016.9 mb - 0.00 in0.0 mm 0.00 in0.0 mm
04:00 PM 66.0°F18.9°C 46.8°F8.2°C 50% 8.1 mph NE13.0 kmh NE 10.4 mph16.7 kmh 30.03 in1016.9 mb - 0.00 in0.0 mm 0.00 in0.0 mm
03:55 PM 65.8°F18.8°C 47.2°F8.4°C 51% 4.6 mph NE7.4 kmh NE 11.5 mph18.5 kmh 30.03 in1016.9 mb - 0.00 in0.0 mm 0.00 in0.0 mm
03:50 PM 66.0°F18.9°C 46.8°F8.2°C 50% 8.1 mph N13.0 kmh N 10.4 mph16.7 kmh 30.03 in1016.9 mb - 0.00 in0.0 mm 0.00 in0.0 mm
03:45 PM 65.8°F18.8°C 46.7°F8.2°C 50% 4.6 mph 7.4 kmh 8.1 mph13.0 kmh 30.03 in1016.9 mb - 0.00 in0.0 mm 0.00 in0.0 mm
03:40 PM 65.3°F18.5°C 46.2°F7.9°C 50% 4.6 mph NNE7.4 kmh NNE 8.1 mph13.0 kmh 30.03 in1016.9 mb - 0.00 in0.0 mm 0.00 in0.0 mm
03:35 PM 65.1°F18.4°C 46.0°F7.8°C 50% 8.1 mph NE13.0 kmh NE 9.2 mph14.8 kmh 30.03 in1016.9 mb - 0.00 in0.0 mm 0.00 in0.0 mm
03:30 PM 64.8°F18.2°C 46.2°F7.9°C 51% 9.2 mph E14.8 kmh E 11.5 mph18.5 kmh 30.03 in1016.9 mb - 0.00 in0.0 mm 0.00 in0.0 mm
03:25 PM 64.4°F18.0°C 45.9°F7.7°C 51% 8.1 mph NE13.0 kmh NE 10.4 mph16.7 kmh 30.03 in1016.9 mb - 0.00 in0.0 mm 0.00 in0.0 mm
03:20 PM 64.4°F18.0°C 45.9°F7.7°C 51% 10.4 mph N16.7 kmh N 12.7 mph20.4 kmh 30.03 in1016.9 mb - 0.00 in0.0 mm 0.00 in0.0 mm
03:15 PM 64.8°F18.2°C 45.7°F7.6°C 50% 6.9 mph NE11.1 kmh NE 10.4 mph16.7 kmh 30.03 in1016.9 mb - 0.00 in0.0 mm 0.00 in0.0 mm
03:10 PM 64.8°F18.2°C 46.2°F7.9°C 51% 8.1 mph N13.0 kmh N 10.4 mph16.7 kmh 30.03 in1016.9 mb - 0.00 in0.0 mm 0.00 in0.0 mm
03:00 PM 64.9°F18.3°C 45.8°F7.7°C 50% 8.1 mph NE13.0 kmh NE 11.5 mph18.5 kmh 30.03 in1016.9 mb - 0.00 in0.0 mm 0.00 in0.0 mm
02:55 PM 64.9°F18.3°C 45.8°F7.7°C 50% 8.1 mph NE13.0 kmh NE 10.4 mph16.7 kmh 30.02 in1016.6 mb - 0.00 in0.0 mm 0.00 in0.0 mm
02:50 PM 64.9°F18.3°C 46.4°F8.0°C 51% 8.1 mph SW13.0 kmh SW 12.7 mph20.4 kmh 30.03 in1016.9 mb - 0.00 in0.0 mm 0.00 in0.0 mm
02:45 PM 65.3°F18.5°C 46.2°F7.9°C 50% 9.2 mph 14.8 kmh 11.5 mph18.5 kmh 30.03 in1016.9 mb - 0.00 in0.0 mm 0.00 in0.0 mm
02:40 PM 65.1°F18.4°C 46.0°F7.8°C 50% 9.2 mph N14.8 kmh N 11.5 mph18.5 kmh 30.03 in1016.9 mb - 0.00 in0.0 mm 0.00 in0.0 mm
02:35 PM 64.7°F18.2°C 46.7°F8.2°C 52% 8.1 mph E13.0 kmh E 10.4 mph16.7 kmh 30.03 in1016.9 mb - 0.00 in0.0 mm 0.00 in0.0 mm
02:30 PM 64.7°F18.2°C 46.7°F8.2°C 52% 9.2 mph NE14.8 kmh NE 10.4 mph16.7 kmh 30.02 in1016.6 mb - 0.00 in0.0 mm 0.00 in0.0 mm
02:25 PM 64.9°F18.3°C 46.9°F8.3°C 52% 10.4 mph NE16.7 kmh NE 13.8 mph22.2 kmh 30.02 in1016.6 mb - 0.00 in0.0 mm 0.00 in0.0 mm
02:20 PM 65.5°F18.6°C 46.9°F8.3°C 51% 10.4 mph NE16.7 kmh NE 12.7 mph20.4 kmh 30.02 in1016.6 mb - 0.00 in0.0 mm 0.00 in0.0 mm
02:15 PM 65.7°F18.7°C 47.5°F8.6°C 52% 6.9 mph NE11.1 kmh NE 8.1 mph13.0 kmh 30.02 in1016.6 mb - 0.00 in0.0 mm 0.00 in0.0 mm
02:10 PM 65.8°F18.8°C 47.7°F8.7°C 52% 8.1 mph E13.0 kmh E 10.4 mph16.7 kmh 30.02 in1016.6 mb - 0.00 in0.0 mm 0.00 in0.0 mm
02:00 PM 65.7°F18.7°C 45.4°F7.4°C 48% 6.9 mph E11.1 kmh E 10.4 mph16.7 kmh 30.02 in1016.6 mb - 0.00 in0.0 mm 0.00 in0.0 mm
01:55 PM 65.8°F18.8°C 45.0°F7.2°C 47% 9.2 mph N14.8 kmh N 12.7 mph20.4 kmh 30.03 in1016.9 mb - 0.00 in0.0 mm 0.00 in0.0 mm
01:50 PM 65.7°F18.7°C 45.4°F7.4°C 48% 10.4 mph NE16.7 kmh NE 10.4 mph16.7 kmh 30.02 in1016.6 mb - 0.00 in0.0 mm 0.00 in0.0 mm
01:45 PM 65.3°F18.5°C 46.1°F7.8°C 50% 8.1 mph NE13.0 kmh NE 10.4 mph16.7 kmh 30.03 in1016.9 mb - 0.00 in0.0 mm 0.00 in0.0 mm
01:40 PM 65.1°F18.4°C 46.0°F7.8°C 50% 8.1 mph NE13.0 kmh NE 10.4 mph16.7 kmh 30.03 in1016.9 mb - 0.00 in0.0 mm 0.00 in0.0 mm
01:35 PM 64.4°F18.0°C 44.8°F7.1°C 49% 9.2 mph E14.8 kmh E 12.7 mph20.4 kmh 30.03 in1016.9 mb - 0.00 in0.0 mm 0.00 in0.0 mm
01:30 PM 64.5°F18.1°C 46.0°F7.8°C 51% 8.1 mph E13.0 kmh E 11.5 mph18.5 kmh 30.02 in1016.6 mb - 0.00 in0.0 mm 0.00 in0.0 mm
01:25 PM 64.4°F18.0°C 45.9°F7.7°C 51% 9.2 mph NE14.8 kmh NE 12.7 mph20.4 kmh 30.03 in1016.9 mb - 0.00 in0.0 mm 0.00 in0.0 mm
01:20 PM 64.6°F18.1°C 46.6°F8.1°C 52% 6.9 mph NE11.1 kmh NE 10.4 mph16.7 kmh 30.03 in1016.9 mb - 0.00 in0.0 mm 0.00 in0.0 mm
01:15 PM 64.0°F17.8°C 46.1°F7.8°C 52% 8.1 mph ENE13.0 kmh ENE 12.7 mph20.4 kmh 30.03 in1016.9 mb - 0.00 in0.0 mm 0.00 in0.0 mm
01:10 PM 64.2°F17.9°C 46.2°F7.9°C 52% 10.4 mph NE16.7 kmh NE 12.7 mph20.4 kmh 30.03 in1016.9 mb - 0.00 in0.0 mm 0.00 in0.0 mm
01:00 PM 64.1°F17.8°C 46.1°F7.8°C 52% 10.4 mph NE16.7 kmh NE 12.7 mph20.4 kmh 30.03 in1016.9 mb - 0.00 in0.0 mm 0.00 in0.0 mm
12:55 PM 65.1°F18.4°C 47.1°F8.4°C 52% 9.2 mph NE14.8 kmh NE 15.0 mph24.1 kmh 30.03 in1016.9 mb - 0.00 in0.0 mm 0.00 in0.0 mm
12:50 PM 65.1°F18.4°C 47.1°F8.4°C 52% 6.9 mph NE11.1 kmh NE 9.2 mph14.8 kmh 30.03 in1016.9 mb - 0.00 in0.0 mm 0.00 in0.0 mm
12:45 PM 64.7°F18.2°C 47.2°F8.4°C 53% 4.6 mph E7.4 kmh E 8.1 mph13.0 kmh 30.03 in1016.9 mb - 0.00 in0.0 mm 0.00 in0.0 mm
12:40 PM 64.6°F18.1°C 46.6°F8.1°C 52% 10.4 mph NE16.7 kmh NE 12.7 mph20.4 kmh 30.03 in1016.9 mb - 0.00 in0.0 mm 0.00 in0.0 mm
12:35 PM 64.6°F18.1°C 47.1°F8.4°C 53% 9.2 mph NNE14.8 kmh NNE 12.7 mph20.4 kmh 30.03 in1016.9 mb - 0.00 in0.0 mm 0.00 in0.0 mm
12:30 PM 64.9°F18.3°C 46.4°F8.0°C 51% 9.2 mph N14.8 kmh N 10.4 mph16.7 kmh 30.03 in1016.9 mb - 0.00 in0.0 mm 0.00 in0.0 mm
12:25 PM 65.1°F18.4°C 47.1°F8.4°C 52% 5.8 mph E9.3 kmh E 8.1 mph13.0 kmh 30.03 in1016.9 mb - 0.00 in0.0 mm 0.00 in0.0 mm
12:20 PM 64.8°F18.2°C 46.8°F8.2°C 52% 9.2 mph N14.8 kmh N 11.5 mph18.5 kmh 30.03 in1016.9 mb - 0.00 in0.0 mm 0.00 in0.0 mm
12:15 PM 64.9°F18.3°C 46.9°F8.3°C 52% 5.8 mph NE9.3 kmh NE 10.4 mph16.7 kmh 30.03 in1016.9 mb - 0.00 in0.0 mm 0.00 in0.0 mm
12:10 PM 64.5°F18.1°C 46.5°F8.1°C 52% 8.1 mph NNE13.0 kmh NNE 11.5 mph18.5 kmh 30.03 in1016.9 mb - 0.00 in0.0 mm 0.00 in0.0 mm
12:00 PM 64.9°F18.3°C 46.4°F8.0°C 51% 8.1 mph NE13.0 kmh NE 10.4 mph16.7 kmh 30.03 in1016.9 mb - 0.00 in0.0 mm 0.00 in0.0 mm
11:55 AM 65.1°F18.4°C 46.5°F8.1°C 51% 6.9 mph N11.1 kmh N 9.2 mph14.8 kmh 30.02 in1016.6 mb - 0.00 in0.0 mm 0.00 in0.0 mm
11:50 AM 65.1°F18.4°C 47.0°F8.3°C 52% 5.8 mph NE9.3 kmh NE 8.1 mph13.0 kmh 30.02 in1016.6 mb - 0.00 in0.0 mm 0.00 in0.0 mm
11:45 AM 64.8°F18.2°C 45.7°F7.6°C 50% 8.1 mph NE13.0 kmh NE 11.5 mph18.5 kmh 30.03 in1016.9 mb - 0.00 in0.0 mm 0.00 in0.0 mm
11:40 AM 64.9°F18.3°C 46.4°F8.0°C 51% 6.9 mph 11.1 kmh 9.2 mph14.8 kmh 30.03 in1016.9 mb - 0.00 in0.0 mm 0.00 in0.0 mm
11:35 AM 65.3°F18.5°C 46.7°F8.2°C 51% 5.8 mph N9.3 kmh N 8.1 mph13.0 kmh 30.03 in1016.9 mb - 0.00 in0.0 mm 0.00 in0.0 mm
11:30 AM 65.3°F18.5°C 46.7°F8.2°C 51% 4.6 mph N7.4 kmh N 10.4 mph16.7 kmh 30.02 in1016.6 mb - 0.00 in0.0 mm 0.00 in0.0 mm
11:25 AM 65.4°F18.6°C 47.3°F8.5°C 52% 6.9 mph N11.1 kmh N 8.1 mph13.0 kmh 30.03 in1016.9 mb - 0.00 in0.0 mm 0.00 in0.0 mm
11:20 AM 65.1°F18.4°C 46.5°F8.1°C 51% 6.9 mph NNE11.1 kmh NNE 9.2 mph14.8 kmh 30.02 in1016.6 mb - 0.00 in0.0 mm 0.00 in0.0 mm
11:15 AM 64.8°F18.2°C 46.2°F7.9°C 51% 8.1 mph NE13.0 kmh NE 10.4 mph16.7 kmh 30.03 in1016.9 mb - 0.00 in0.0 mm 0.00 in0.0 mm
11:10 AM 64.9°F18.3°C 46.4°F8.0°C 51% 4.6 mph N7.4 kmh N 5.8 mph9.3 kmh 30.02 in1016.6 mb - 0.00 in0.0 mm 0.00 in0.0 mm
11:00 AM 64.6°F18.1°C 45.5°F7.5°C 50% 5.8 mph NE9.3 kmh NE 6.9 mph11.1 kmh 30.03 in1016.9 mb - 0.00 in0.0 mm 0.00 in0.0 mm
10:55 AM 64.7°F18.2°C 46.2°F7.9°C 51% 4.6 mph NNW7.4 kmh NNW 8.1 mph13.0 kmh 30.03 in1016.9 mb - 0.00 in0.0 mm 0.00 in0.0 mm
10:50 AM 64.2°F17.9°C 45.2°F7.3°C 50% 5.8 mph N9.3 kmh N 6.9 mph11.1 kmh 30.02 in1016.6 mb - 0.00 in0.0 mm 0.00 in0.0 mm
10:45 AM 64.4°F18.0°C 45.3°F7.4°C 50% 4.6 mph N7.4 kmh N 5.8 mph9.3 kmh 30.03 in1016.9 mb - 0.00 in0.0 mm 0.00 in0.0 mm
10:40 AM 64.2°F17.9°C 45.7°F7.6°C 51% 4.6 mph NE7.4 kmh NE 8.1 mph13.0 kmh 30.02 in1016.6 mb - 0.00 in0.0 mm 0.00 in0.0 mm
10:35 AM 64.0°F17.8°C 46.1°F7.8°C 52% 6.9 mph NE11.1 kmh NE 10.4 mph16.7 kmh 30.02 in1016.6 mb - 0.00 in0.0 mm 0.00 in0.0 mm
10:30 AM 64.2°F17.9°C 46.7°F8.2°C 53% 3.5 mph WNW5.6 kmh WNW 5.8 mph9.3 kmh 30.02 in1016.6 mb - 0.00 in0.0 mm 0.00 in0.0 mm
10:25 AM 64.2°F17.9°C 47.2°F8.4°C 54% 4.6 mph N7.4 kmh N 6.9 mph11.1 kmh 30.02 in1016.6 mb - 0.00 in0.0 mm 0.00 in0.0 mm
10:20 AM 63.8°F17.7°C 46.8°F8.2°C 54% 3.5 mph NE5.6 kmh NE 5.8 mph9.3 kmh 30.02 in1016.6 mb - 0.00 in0.0 mm 0.00 in0.0 mm
10:15 AM 63.5°F17.5°C 46.1°F7.8°C 53% 3.5 mph NNW5.6 kmh NNW 5.8 mph9.3 kmh 30.03 in1016.9 mb - 0.00 in0.0 mm 0.00 in0.0 mm
10:10 AM 63.5°F17.5°C 46.1°F7.8°C 53% 2.3 mph NNE3.7 kmh NNE 3.5 mph5.6 kmh 30.02 in1016.6 mb - 0.00 in0.0 mm 0.00 in0.0 mm
10:00 AM 63.1°F17.3°C 48.5°F9.2°C 59% 1.2 mph N1.9 kmh N 3.5 mph5.6 kmh 30.02 in1016.6 mb - 0.00 in0.0 mm 0.00 in0.0 mm
09:55 AM 62.6°F17.0°C 48.1°F8.9°C 59% 3.5 mph NE5.6 kmh NE 3.5 mph5.6 kmh 30.02 in1016.6 mb - 0.00 in0.0 mm 0.00 in0.0 mm
09:50 AM 62.8°F17.1°C 47.8°F8.8°C 58% 5.8 mph NE9.3 kmh NE 6.9 mph11.1 kmh 30.02 in1016.6 mb - 0.00 in0.0 mm 0.00 in0.0 mm
09:45 AM 62.4°F16.9°C 48.8°F9.3°C 61% 3.5 mph N5.6 kmh N 5.8 mph9.3 kmh 30.02 in1016.6 mb - 0.00 in0.0 mm 0.00 in0.0 mm
09:40 AM 61.6°F16.4°C 48.5°F9.2°C 62% 2.3 mph N3.7 kmh N 4.6 mph7.4 kmh 30.02 in1016.6 mb - 0.00 in0.0 mm 0.00 in0.0 mm
09:35 AM 61.1°F16.2°C 48.4°F9.1°C 63% 1.2 mph SW1.9 kmh SW 2.3 mph3.7 kmh 30.02 in1016.6 mb - 0.00 in0.0 mm 0.00 in0.0 mm
09:30 AM 60.8°F16.0°C 48.1°F8.9°C 63% 1.2 mph W1.9 kmh W 2.3 mph3.7 kmh 30.02 in1016.6 mb - 0.00 in0.0 mm 0.00 in0.0 mm
09:25 AM 60.4°F15.8°C 48.6°F9.2°C 65% 1.2 mph NW1.9 kmh NW 1.2 mph1.9 kmh 30.02 in1016.6 mb - 0.00 in0.0 mm 0.00 in0.0 mm
09:20 AM 59.9°F15.5°C 48.1°F8.9°C 65% Calm Calm 1.2 mph1.9 kmh 30.02 in1016.6 mb - 0.00 in0.0 mm 0.00 in0.0 mm
09:15 AM 59.4°F15.2°C 48.8°F9.3°C 68% 1.2 mph N1.9 kmh N 2.3 mph3.7 kmh 30.02 in1016.6 mb - 0.00 in0.0 mm 0.00 in0.0 mm
09:10 AM 59.1°F15.1°C 49.7°F9.8°C 71% Calm Calm 2.3 mph3.7 kmh 30.02 in1016.6 mb - 0.00 in0.0 mm 0.00 in0.0 mm
09:00 AM 56.6°F13.7°C 48.0°F8.9°C 73% Calm Calm 1.2 mph1.9 kmh 30.02 in1016.6 mb - 0.00 in0.0 mm 0.00 in0.0 mm
08:55 AM 55.5°F13.1°C 47.4°F8.6°C 74% Calm Calm 1.2 mph1.9 kmh 30.02 in1016.6 mb - 0.00 in0.0 mm 0.00 in0.0 mm
08:50 AM 55.0°F12.8°C 47.3°F8.5°C 75% 1.2 mph W1.9 kmh W 1.2 mph1.9 kmh 30.01 in1016.3 mb - 0.00 in0.0 mm 0.00 in0.0 mm
08:45 AM 54.9°F12.7°C 47.4°F8.6°C 76% 1.2 mph W1.9 kmh W 2.3 mph3.7 kmh 30.02 in1016.6 mb - 0.00 in0.0 mm 0.00 in0.0 mm
08:40 AM 54.6°F12.6°C 47.6°F8.7°C 77% 1.2 mph NW1.9 kmh NW 2.3 mph3.7 kmh 30.02 in1016.6 mb - 0.00 in0.0 mm 0.00 in0.0 mm
08:35 AM 54.3°F12.4°C 48.9°F9.4°C 82% 1.2 mph W1.9 kmh W 3.5 mph5.6 kmh 30.01 in1016.3 mb - 0.00 in0.0 mm 0.00 in0.0 mm
08:30 AM 54.3°F12.4°C 49.2°F9.6°C 83% 1.2 mph SW1.9 kmh SW 2.3 mph3.7 kmh 30.01 in1016.3 mb - 0.00 in0.0 mm 0.00 in0.0 mm
08:25 AM 53.4°F11.9°C 48.3°F9.1°C 83% Calm Calm -- 30.01 in1016.3 mb - 0.00 in0.0 mm 0.00 in0.0 mm
08:20 AM 52.8°F11.6°C 47.8°F8.8°C 83% Calm Calm -- 30.01 in1016.3 mb - 0.00 in0.0 mm 0.00 in0.0 mm
08:15 AM 52.3°F11.3°C 47.3°F8.5°C 83% 1.2 mph SW1.9 kmh SW 1.2 mph1.9 kmh 30.01 in1016.3 mb - 0.00 in0.0 mm 0.00 in0.0 mm
08:10 AM 52.1°F11.2°C 47.1°F8.4°C 83% 1.2 mph W1.9 kmh W 1.2 mph1.9 kmh 30.01 in1016.3 mb - 0.00 in0.0 mm 0.00 in0.0 mm
08:00 AM 51.2°F10.7°C 46.2°F7.9°C 83% Calm Calm 1.2 mph1.9 kmh 30.00 in1015.9 mb - 0.00 in0.0 mm 0.00 in0.0 mm
07:55 AM 50.7°F10.4°C 45.7°F7.6°C 83% Calm Calm -- 30.00 in1015.9 mb - 0.00 in0.0 mm 0.00 in0.0 mm
07:50 AM 50.5°F10.3°C 45.6°F7.6°C 83% Calm Calm -- 30.00 in1015.9 mb - 0.00 in0.0 mm 0.00 in0.0 mm
07:45 AM 50.4°F10.2°C 45.4°F7.4°C 83% Calm Calm 1.2 mph1.9 kmh 30.01 in1016.3 mb - 0.00 in0.0 mm 0.00 in0.0 mm
07:40 AM 50.1°F10.1°C 45.2°F7.3°C 83% Calm Calm -- 30.00 in1015.9 mb - 0.00 in0.0 mm 0.00 in0.0 mm
07:35 AM 49.6°F9.8°C 44.7°F7.1°C 83% Calm Calm -- 30.00 in1015.9 mb - 0.00 in0.0 mm 0.00 in0.0 mm
07:30 AM 49.4°F9.7°C 44.5°F6.9°C 83% Calm Calm -- 30.00 in1015.9 mb - 0.00 in0.0 mm 0.00 in0.0 mm
07:25 AM 49.1°F9.5°C 44.2°F6.8°C 83% Calm Calm -- 30.00 in1015.9 mb - 0.00 in0.0 mm 0.00 in0.0 mm
07:20 AM 48.9°F9.4°C 44.0°F6.7°C 83% Calm Calm -- 30.00 in1015.9 mb - 0.00 in0.0 mm 0.00 in0.0 mm
07:15 AM 48.7°F9.3°C 43.8°F6.6°C 83% Calm Calm -- 30.00 in1015.9 mb - 0.00 in0.0 mm 0.00 in0.0 mm
07:10 AM 48.6°F9.2°C 43.6°F6.4°C 83% Calm Calm -- 30.00 in1015.9 mb - 0.00 in0.0 mm 0.00 in0.0 mm
07:00 AM 48.4°F9.1°C 43.5°F6.4°C 83% Calm Calm -- 30.00 in1015.9 mb - 0.00 in0.0 mm 0.00 in0.0 mm
06:55 AM 48.2°F9.0°C 43.3°F6.3°C 83% Calm Calm -- 29.99 in1015.6 mb - 0.00 in0.0 mm 0.00 in0.0 mm
06:50 AM 48.2°F9.0°C 43.3°F6.3°C 83% Calm Calm -- 29.99 in1015.6 mb - 0.00 in0.0 mm 0.00 in0.0 mm
06:45 AM 48.2°F9.0°C 43.3°F6.3°C 83% Calm Calm -- 29.99 in1015.6 mb - 0.00 in0.0 mm 0.00 in0.0 mm
06:40 AM 48.0°F8.9°C 43.1°F6.2°C 83% Calm Calm -- 29.99 in1015.6 mb - 0.00 in0.0 mm 0.00 in0.0 mm
06:35 AM 47.7°F8.7°C 42.4°F5.8°C 82% Calm Calm -- 29.99 in1015.6 mb - 0.00 in0.0 mm 0.00 in0.0 mm
06:30 AM 47.5°F8.6°C 42.3°F5.7°C 82% Calm Calm -- 29.98 in1015.2 mb - 0.00 in0.0 mm 0.00 in0.0 mm
06:25 AM 47.5°F8.6°C 42.3°F5.7°C 82% Calm Calm -- 29.99 in1015.6 mb - 0.00 in0.0 mm 0.00 in0.0 mm
06:20 AM 47.3°F8.5°C 42.1°F5.6°C 82% Calm Calm -- 29.99 in1015.6 mb - 0.00 in0.0 mm 0.00 in0.0 mm
06:15 AM 47.3°F8.5°C 42.1°F5.6°C 82% Calm Calm -- 29.99 in1015.6 mb - 0.00 in0.0 mm 0.00 in0.0 mm
06:10 AM 47.3°F8.5°C 42.1°F5.6°C 82% Calm Calm -- 29.99 in1015.6 mb - 0.00 in0.0 mm 0.00 in0.0 mm
06:00 AM 47.3°F8.5°C 42.1°F5.6°C 82% 1.2 mph SE1.9 kmh SE 1.2 mph1.9 kmh 29.98 in1015.2 mb - 0.00 in0.0 mm 0.00 in0.0 mm
05:55 AM 47.3°F8.5°C 41.8°F5.4°C 81% Calm Calm -- 29.98 in1015.2 mb - 0.00 in0.0 mm 0.00 in0.0 mm
05:50 AM 47.3°F8.5°C 41.8°F5.4°C 81% Calm Calm -- 29.98 in1015.2 mb - 0.00 in0.0 mm 0.00 in0.0 mm
05:45 AM 47.5°F8.6°C 41.9°F5.5°C 81% 1.2 mph E1.9 kmh E 2.3 mph3.7 kmh 29.98 in1015.2 mb - 0.00 in0.0 mm 0.00 in0.0 mm
05:40 AM 47.7°F8.7°C 42.1°F5.6°C 81% Calm Calm 1.2 mph1.9 kmh 29.98 in1015.2 mb - 0.00 in0.0 mm 0.00 in0.0 mm
05:35 AM 47.8°F8.8°C 42.3°F5.7°C 81% 1.2 mph E1.9 kmh E 1.2 mph1.9 kmh 29.98 in1015.2 mb - 0.00 in0.0 mm 0.00 in0.0 mm
05:30 AM 48.1°F8.9°C 42.2°F5.7°C 80% 1.2 mph E1.9 kmh E 1.2 mph1.9 kmh 29.98 in1015.2 mb - 0.00 in0.0 mm 0.00 in0.0 mm
05:25 AM 48.4°F9.1°C 42.5°F5.8°C 80% Calm Calm 1.2 mph1.9 kmh 29.98 in1015.2 mb - 0.00 in0.0 mm 0.00 in0.0 mm
05:20 AM 48.6°F9.2°C 42.7°F5.9°C 80% Calm Calm -- 29.98 in1015.2 mb - 0.00 in0.0 mm 0.00 in0.0 mm
05:15 AM 48.8°F9.3°C 42.9°F6.1°C 80% Calm Calm -- 29.98 in1015.2 mb - 0.00 in0.0 mm 0.00 in0.0 mm
05:10 AM 48.9°F9.4°C 43.0°F6.1°C 80% Calm Calm -- 29.98 in1015.2 mb - 0.00 in0.0 mm 0.00 in0.0 mm
05:00 AM 49.5°F9.7°C 43.5°F6.4°C 80% Calm Calm -- 29.98 in1015.2 mb - 0.00 in0.0 mm 0.00 in0.0 mm
04:55 AM 49.6°F9.8°C 43.7°F6.5°C 80% Calm Calm 1.2 mph1.9 kmh 29.98 in1015.2 mb - 0.00 in0.0 mm 0.00 in0.0 mm
04:50 AM 49.6°F9.8°C 43.7°F6.5°C 80% Calm Calm 1.2 mph1.9 kmh 29.97 in1014.9 mb - 0.00 in0.0 mm 0.00 in0.0 mm
04:45 AM 49.6°F9.8°C 43.4°F6.3°C 79% Calm Calm -- 29.97 in1014.9 mb - 0.00 in0.0 mm 0.00 in0.0 mm
04:40 AM 49.8°F9.9°C 43.6°F6.4°C 79% Calm Calm -- 29.98 in1015.2 mb - 0.00 in0.0 mm 0.00 in0.0 mm
04:35 AM 50.0°F10.0°C 43.7°F6.5°C 79% Calm Calm -- 29.98 in1015.2 mb - 0.00 in0.0 mm 0.00 in0.0 mm
04:30 AM 50.2°F10.1°C 43.9°F6.6°C 79% 1.2 mph W1.9 kmh W 2.3 mph3.7 kmh 29.97 in1014.9 mb - 0.00 in0.0 mm 0.00 in0.0 mm
04:25 AM 50.4°F10.2°C 44.1°F6.7°C 79% Calm Calm -- 29.97 in1014.9 mb - 0.00 in0.0 mm 0.00 in0.0 mm
04:20 AM 50.4°F10.2°C 44.1°F6.7°C 79% Calm Calm -- 29.98 in1015.2 mb - 0.00 in0.0 mm 0.00 in0.0 mm
04:15 AM 50.5°F10.3°C 44.3°F6.8°C 79% Calm Calm -- 29.98 in1015.2 mb - 0.00 in0.0 mm 0.00 in0.0 mm
04:10 AM 50.5°F10.3°C 44.3°F6.8°C 79% Calm Calm -- 29.98 in1015.2 mb - 0.00 in0.0 mm 0.00 in0.0 mm
04:00 AM 50.5°F10.3°C 43.9°F6.6°C 78% Calm Calm -- 29.98 in1015.2 mb - 0.00 in0.0 mm 0.00 in0.0 mm
03:55 AM 50.6°F10.3°C 44.0°F6.7°C 78% Calm Calm -- 29.98 in1015.2 mb - 0.00 in0.0 mm 0.00 in0.0 mm
03:50 AM 50.7°F10.4°C 44.1°F6.7°C 78% Calm Calm -- 29.98 in1015.2 mb - 0.00 in0.0 mm 0.00 in0.0 mm
03:45 AM 50.5°F10.3°C 43.6°F6.4°C 77% Calm Calm -- 29.98 in1015.2 mb - 0.00 in0.0 mm 0.00 in0.0 mm
03:40 AM 50.7°F10.4°C 43.8°F6.6°C 77% Calm Calm -- 29.98 in1015.2 mb - 0.00 in0.0 mm 0.00 in0.0 mm
03:35 AM 50.7°F10.4°C 43.8°F6.6°C 77% Calm Calm -- 29.97 in1014.9 mb - 0.00 in0.0 mm 0.00 in0.0 mm
03:30 AM 50.7°F10.4°C 43.8°F6.6°C 77% Calm Calm -- 29.98 in1015.2 mb - 0.00 in0.0 mm 0.00 in0.0 mm
03:25 AM 50.7°F10.4°C 43.4°F6.3°C 76% 1.2 mph E1.9 kmh E 1.2 mph1.9 kmh 29.97 in1014.9 mb - 0.00 in0.0 mm 0.00 in0.0 mm
03:20 AM 50.7°F10.4°C 43.4°F6.3°C 76% 1.2 mph E1.9 kmh E 1.2 mph1.9 kmh 29.97 in1014.9 mb - 0.00 in0.0 mm 0.00 in0.0 mm
03:15 AM 50.7°F10.4°C 43.4°F6.3°C 76% Calm Calm 1.2 mph1.9 kmh 29.97 in1014.9 mb - 0.00 in0.0 mm 0.00 in0.0 mm
03:10 AM 50.9°F10.5°C 43.6°F6.4°C 76% Calm Calm -- 29.97 in1014.9 mb - 0.00 in0.0 mm 0.00 in0.0 mm
02:55 AM 50.9°F10.5°C 43.6°F6.4°C 76% Calm Calm -- 29.97 in1014.9 mb - 0.00 in0.0 mm 0.00 in0.0 mm
02:50 AM 50.9°F10.5°C 43.6°F6.4°C 76% Calm Calm -- 29.97 in1014.9 mb - 0.00 in0.0 mm 0.00 in0.0 mm
02:45 AM 50.7°F10.4°C 43.4°F6.3°C 76% Calm Calm -- 29.97 in1014.9 mb - 0.00 in0.0 mm 0.00 in0.0 mm
02:40 AM 50.7°F10.4°C 43.4°F6.3°C 76% Calm Calm -- 29.97 in1014.9 mb - 0.00 in0.0 mm 0.00 in0.0 mm
02:35 AM 50.5°F10.3°C 43.6°F6.4°C 77% Calm Calm 1.2 mph1.9 kmh 29.97 in1014.9 mb - 0.00 in0.0 mm 0.00 in0.0 mm
02:30 AM 50.5°F10.3°C 43.6°F6.4°C 77% Calm Calm 1.2 mph1.9 kmh 29.97 in1014.9 mb - 0.00 in0.0 mm 0.00 in0.0 mm
02:25 AM 50.5°F10.3°C 43.6°F6.4°C 77% Calm Calm -- 29.97 in1014.9 mb - 0.00 in0.0 mm 0.00 in0.0 mm
02:20 AM 50.5°F10.3°C 43.6°F6.4°C 77% Calm Calm 1.2 mph1.9 kmh 29.97 in1014.9 mb - 0.00 in0.0 mm 0.00 in0.0 mm
02:15 AM 50.5°F10.3°C 43.9°F6.6°C 78% 1.2 mph W1.9 kmh W 2.3 mph3.7 kmh 29.97 in1014.9 mb - 0.00 in0.0 mm 0.00 in0.0 mm
02:10 AM 50.6°F10.3°C 43.6°F6.4°C 77% 2.3 mph W3.7 kmh W 3.5 mph5.6 kmh 29.97 in1014.9 mb - 0.00 in0.0 mm 0.00 in0.0 mm
02:00 AM 50.9°F10.5°C 44.0°F6.7°C 77% 2.3 mph W3.7 kmh W 3.5 mph5.6 kmh 29.97 in1014.9 mb - 0.00 in0.0 mm 0.00 in0.0 mm
01:55 AM 51.1°F10.6°C 44.1°F6.7°C 77% Calm Calm -- 29.97 in1014.9 mb - 0.00 in0.0 mm 0.00 in0.0 mm
01:50 AM 51.1°F10.6°C 44.1°F6.7°C 77% Calm Calm 1.2 mph1.9 kmh 29.97 in1014.9 mb - 0.00 in0.0 mm 0.00 in0.0 mm
01:45 AM 51.1°F10.6°C 44.1°F6.7°C 77% Calm Calm -- 29.97 in1014.9 mb - 0.00 in0.0 mm 0.00 in0.0 mm
01:40 AM 50.9°F10.5°C 43.9°F6.6°C 77% Calm Calm -- 29.97 in1014.9 mb - 0.00 in0.0 mm 0.00 in0.0 mm
01:35 AM 50.9°F10.5°C 43.6°F6.4°C 76% Calm Calm -- 29.98 in1015.2 mb - 0.00 in0.0 mm 0.00 in0.0 mm
01:30 AM 50.9°F10.5°C 43.6°F6.4°C 76% Calm Calm 1.2 mph1.9 kmh 29.98 in1015.2 mb - 0.00 in0.0 mm 0.00 in0.0 mm
01:25 AM 50.9°F10.5°C 43.6°F6.4°C 76% 1.2 mph E1.9 kmh E 1.2 mph1.9 kmh 29.98 in1015.2 mb - 0.00 in0.0 mm 0.00 in0.0 mm
01:20 AM 50.9°F10.5°C 43.6°F6.4°C 76% Calm Calm -- 29.98 in1015.2 mb - 0.00 in0.0 mm 0.00 in0.0 mm
01:15 AM 50.9°F10.5°C 43.3°F6.3°C 75% Calm Calm -- 29.98 in1015.2 mb - 0.00 in0.0 mm 0.00 in0.0 mm
01:10 AM 50.9°F10.5°C 43.3°F6.3°C 75% Calm Calm 1.2 mph1.9 kmh 29.98 in1015.2 mb - 0.00 in0.0 mm 0.00 in0.0 mm
01:00 AM 51.1°F10.6°C 43.1°F6.2°C 74% Calm Calm -- 29.98 in1015.2 mb - 0.00 in0.0 mm 0.00 in0.0 mm
12:55 AM 51.3°F10.7°C 43.6°F6.4°C 75% Calm Calm -- 29.98 in1015.2 mb - 0.00 in0.0 mm 0.00 in0.0 mm
12:50 AM 51.4°F10.8°C 43.8°F6.6°C 75% Calm Calm -- 29.98 in1015.2 mb - 0.00 in0.0 mm 0.00 in0.0 mm
12:45 AM 51.4°F10.8°C 43.8°F6.6°C 75% Calm Calm -- 29.98 in1015.2 mb - 0.00 in0.0 mm 0.00 in0.0 mm
12:40 AM 51.4°F10.8°C 43.4°F6.3°C 74% Calm Calm -- 29.98 in1015.2 mb - 0.00 in0.0 mm 0.00 in0.0 mm
12:35 AM 51.4°F10.8°C 43.4°F6.3°C 74% Calm Calm -- 29.98 in1015.2 mb - 0.00 in0.0 mm 0.00 in0.0 mm
12:30 AM 51.4°F10.8°C 43.1°F6.2°C 73% 1.2 mph W1.9 kmh W 1.2 mph1.9 kmh 29.99 in1015.6 mb - 0.00 in0.0 mm 0.00 in0.0 mm
12:25 AM 51.4°F10.8°C 43.1°F6.2°C 73% Calm Calm -- 29.99 in1015.6 mb - 0.00 in0.0 mm 0.00 in0.0 mm
12:20 AM 51.4°F10.8°C 43.1°F6.2°C 73% Calm Calm -- 29.99 in1015.6 mb - 0.00 in0.0 mm 0.00 in0.0 mm
12:15 AM 51.6°F10.9°C 43.2°F6.2°C 73% Calm Calm -- 29.99 in1015.6 mb - 0.00 in0.0 mm 0.00 in0.0 mm
12:10 AM 51.6°F10.9°C 42.9°F6.1°C 72% Calm Calm -- 29.99 in1015.6 mb - 0.00 in0.0 mm 0.00 in0.0 mm
12:00 AM 52.0°F11.1°C 43.2°F6.2°C 72% Calm Calm 1.2 mph1.9 kmh 29.99 in1015.6 mb - 0.00 in0.0 mm 0.00 in0.0 mm